sensor_id;sensor_type;location;lat;lon;timestamp;pressure;altitude;pressure_sealevel;temperature;humidity
26635;BME280;14490;54.208;37.686;2023-04-27T00:00:31;98512.56;;;12.67;100.00
26635;BME280;14490;54.208;37.686;2023-04-27T00:02:59;98515.94;;;12.69;100.00
26635;BME280;14490;54.208;37.686;2023-04-27T00:05:33;98526.09;;;12.75;100.00
26635;BME280;14490;54.208;37.686;2023-04-27T00:08:01;98509.31;;;12.55;100.00
26635;BME280;14490;54.208;37.686;2023-04-27T00:10:29;98527.56;;;12.61;100.00
26635;BME280;14490;54.208;37.686;2023-04-27T00:12:56;98521.47;;;12.59;100.00
26635;BME280;14490;54.208;37.686;2023-04-27T00:15:24;98540.41;;;12.67;100.00
26635;BME280;14490;54.208;37.686;2023-04-27T00:17:52;98523.81;;;12.54;100.00
26635;BME280;14490;54.208;37.686;2023-04-27T00:20:19;98532.97;;;12.61;100.00
26635;BME280;14490;54.208;37.686;2023-04-27T00:22:52;98500.59;;;12.35;100.00
26635;BME280;14490;54.208;37.686;2023-04-27T00:25:20;98477.72;;;12.14;100.00
26635;BME280;14490;54.208;37.686;2023-04-27T00:27:48;98531.56;;;12.49;100.00
26635;BME280;14490;54.208;37.686;2023-04-27T00:30:19;98520.03;;;12.39;100.00
26635;BME280;14490;54.208;37.686;2023-04-27T00:32:49;98530.16;;;12.45;100.00
26635;BME280;14490;54.208;37.686;2023-04-27T00:35:31;98368.31;;;11.51;100.00
26635;BME280;14490;54.208;37.686;2023-04-27T00:38:18;98384.69;;;11.58;100.00
26635;BME280;14490;54.208;37.686;2023-04-27T00:40:59;98531.16;;;12.44;100.00
26635;BME280;14490;54.208;37.686;2023-04-27T00:43:40;98547.56;;;12.50;100.00
26635;BME280;14490;54.208;37.686;2023-04-27T00:46:09;98542.13;;;12.42;100.00
26635;BME280;14490;54.208;37.686;2023-04-27T00:48:45;98535.88;;;12.42;100.00
26635;BME280;14490;54.208;37.686;2023-04-27T00:51:13;98544.97;;;12.41;100.00
26635;BME280;14490;54.208;37.686;2023-04-27T00:53:44;98540.75;;;12.38;100.00
26635;BME280;14490;54.208;37.686;2023-04-27T00:56:11;98530.59;;;12.32;100.00
26635;BME280;14490;54.208;37.686;2023-04-27T00:58:41;98470.88;;;11.93;100.00
26635;BME280;14490;54.208;37.686;2023-04-27T01:01:16;98551.72;;;12.37;100.00
26635;BME280;14490;54.208;37.686;2023-04-27T01:03:45;98558.06;;;12.28;100.00
26635;BME280;14490;54.208;37.686;2023-04-27T01:06:16;98554.00;;;12.24;100.00
26635;BME280;14490;54.208;37.686;2023-04-27T01:08:45;98548.69;;;12.14;100.00
26635;BME280;14490;54.208;37.686;2023-04-27T01:11:18;98526.50;;;11.94;100.00
26635;BME280;14490;54.208;37.686;2023-04-27T01:13:46;98564.03;;;12.14;100.00
26635;BME280;14490;54.208;37.686;2023-04-27T01:16:15;98563.34;;;12.12;100.00
26635;BME280;14490;54.208;37.686;2023-04-27T01:18:43;98556.50;;;11.99;100.00
26635;BME280;14490;54.208;37.686;2023-04-27T01:21:11;98526.50;;;11.77;100.00
26635;BME280;14490;54.208;37.686;2023-04-27T01:23:45;98510.25;;;11.69;100.00
26635;BME280;14490;54.208;37.686;2023-04-27T01:26:13;98553.44;;;11.94;100.00
26635;BME280;14490;54.208;37.686;2023-04-27T01:28:41;98544.66;;;11.92;100.00
26635;BME280;14490;54.208;37.686;2023-04-27T01:31:11;98557.19;;;12.01;100.00
26635;BME280;14490;54.208;37.686;2023-04-27T01:33:40;98533.44;;;11.79;100.00
26635;BME280;14490;54.208;37.686;2023-04-27T01:36:10;98528.50;;;11.75;100.00
26635;BME280;14490;54.208;37.686;2023-04-27T01:38:40;98552.75;;;11.92;100.00
26635;BME280;14490;54.208;37.686;2023-04-27T01:41:09;98539.75;;;11.88;100.00
26635;BME280;14490;54.208;37.686;2023-04-27T01:43:37;98519.25;;;11.77;100.00
26635;BME280;14490;54.208;37.686;2023-04-27T01:46:07;98554.19;;;12.04;100.00
26635;BME280;14490;54.208;37.686;2023-04-27T01:48:38;98555.56;;;12.09;100.00
26635;BME280;14490;54.208;37.686;2023-04-27T01:51:06;98549.84;;;12.12;100.00
26635;BME280;14490;54.208;37.686;2023-04-27T01:53:34;98546.16;;;12.13;100.00
26635;BME280;14490;54.208;37.686;2023-04-27T01:56:05;98536.84;;;12.07;100.00
26635;BME280;14490;54.208;37.686;2023-04-27T01:58:36;98557.31;;;12.18;100.00
26635;BME280;14490;54.208;37.686;2023-04-27T02:01:05;98567.63;;;12.22;100.00
26635;BME280;14490;54.208;37.686;2023-04-27T02:03:32;98545.47;;;12.11;100.00
26635;BME280;14490;54.208;37.686;2023-04-27T02:06:03;98565.44;;;12.26;100.00
26635;BME280;14490;54.208;37.686;2023-04-27T02:08:31;98561.72;;;12.19;100.00
26635;BME280;14490;54.208;37.686;2023-04-27T02:11:03;98569.84;;;12.27;100.00
26635;BME280;14490;54.208;37.686;2023-04-27T02:13:30;98549.69;;;12.13;100.00
26635;BME280;14490;54.208;37.686;2023-04-27T02:16:00;98583.03;;;12.30;100.00
26635;BME280;14490;54.208;37.686;2023-04-27T02:18:29;98566.09;;;12.20;100.00
26635;BME280;14490;54.208;37.686;2023-04-27T02:20:57;98535.72;;;11.92;100.00
26635;BME280;14490;54.208;37.686;2023-04-27T02:23:24;98521.50;;;11.82;100.00
26635;BME280;14490;54.208;37.686;2023-04-27T02:25:52;98590.38;;;12.20;100.00
26635;BME280;14490;54.208;37.686;2023-04-27T02:28:25;98594.81;;;12.29;100.00
26635;BME280;14490;54.208;37.686;2023-04-27T02:30:54;98605.81;;;12.35;100.00
26635;BME280;14490;54.208;37.686;2023-04-27T02:33:24;98599.88;;;12.32;100.00
26635;BME280;14490;54.208;37.686;2023-04-27T02:35:51;98564.19;;;12.12;100.00
26635;BME280;14490;54.208;37.686;2023-04-27T02:38:19;98604.44;;;12.31;100.00
26635;BME280;14490;54.208;37.686;2023-04-27T02:40:52;98598.00;;;12.24;100.00
26635;BME280;14490;54.208;37.686;2023-04-27T02:43:20;98605.69;;;12.19;100.00
26635;BME280;14490;54.208;37.686;2023-04-27T02:45:48;98567.91;;;11.93;100.00
26635;BME280;14490;54.208;37.686;2023-04-27T02:48:16;98601.63;;;12.15;100.00
26635;BME280;14490;54.208;37.686;2023-04-27T02:50:45;98568.25;;;11.90;100.00
26635;BME280;14490;54.208;37.686;2023-04-27T02:53:13;98596.91;;;12.17;100.00
26635;BME280;14490;54.208;37.686;2023-04-27T02:55:44;98615.75;;;12.35;100.00
26635;BME280;14490;54.208;37.686;2023-04-27T02:58:13;98587.00;;;12.18;100.00
26635;BME280;14490;54.208;37.686;2023-04-27T03:00:41;98627.31;;;12.45;100.00
26635;BME280;14490;54.208;37.686;2023-04-27T03:03:09;98599.56;;;12.35;100.00
26635;BME280;14490;54.208;37.686;2023-04-27T03:05:37;98618.22;;;12.46;100.00
26635;BME280;14490;54.208;37.686;2023-04-27T03:08:08;98628.22;;;12.53;100.00
26635;BME280;14490;54.208;37.686;2023-04-27T03:10:36;98639.38;;;12.58;100.00
26635;BME280;14490;54.208;37.686;2023-04-27T03:13:04;98648.69;;;12.64;100.00
26635;BME280;14490;54.208;37.686;2023-04-27T03:15:31;98651.22;;;12.66;100.00
26635;BME280;14490;54.208;37.686;2023-04-27T03:17:59;98629.06;;;12.54;100.00
26635;BME280;14490;54.208;37.686;2023-04-27T03:20:27;98641.59;;;12.63;100.00
26635;BME280;14490;54.208;37.686;2023-04-27T03:22:57;98606.03;;;12.42;100.00
26635;BME280;14490;54.208;37.686;2023-04-27T03:25:28;98637.28;;;12.70;100.00
26635;BME280;14490;54.208;37.686;2023-04-27T03:27:56;98642.53;;;12.80;100.00
26635;BME280;14490;54.208;37.686;2023-04-27T03:30:23;98639.78;;;12.97;100.00
26635;BME280;14490;54.208;37.686;2023-04-27T03:32:53;98634.25;;;13.07;100.00
26635;BME280;14490;54.208;37.686;2023-04-27T03:35:52;98545.97;;;12.74;100.00
26635;BME280;14490;54.208;37.686;2023-04-27T03:39:06;98618.56;;;13.52;100.00
26635;BME280;14490;54.208;37.686;2023-04-27T03:41:39;98617.22;;;13.56;100.00
26635;BME280;14490;54.208;37.686;2023-04-27T03:44:06;98616.22;;;13.65;100.00
26635;BME280;14490;54.208;37.686;2023-04-27T03:46:40;98583.59;;;13.51;100.00
26635;BME280;14490;54.208;37.686;2023-04-27T03:49:09;98614.75;;;13.79;100.00
26635;BME280;14490;54.208;37.686;2023-04-27T03:52:13;98647.72;;;14.15;100.00
26635;BME280;14490;54.208;37.686;2023-04-27T03:54:56;98642.66;;;14.28;100.00
26635;BME280;14490;54.208;37.686;2023-04-27T03:57:29;98652.19;;;14.40;100.00
26635;BME280;14490;54.208;37.686;2023-04-27T03:59:57;98621.88;;;14.29;100.00
26635;BME280;14490;54.208;37.686;2023-04-27T04:02:25;98652.66;;;14.60;100.00
26635;BME280;14490;54.208;37.686;2023-04-27T04:05:07;98635.75;;;14.50;100.00
26635;BME280;14490;54.208;37.686;2023-04-27T04:07:41;98667.19;;;14.75;100.00
26635;BME280;14490;54.208;37.686;2023-04-27T04:10:13;98647.22;;;14.76;100.00
26635;BME280;14490;54.208;37.686;2023-04-27T04:12:47;98622.38;;;14.64;100.00
26635;BME280;14490;54.208;37.686;2023-04-27T04:15:19;98652.94;;;14.89;100.00
26635;BME280;14490;54.208;37.686;2023-04-27T04:17:50;98663.09;;;14.95;100.00
26635;BME280;14490;54.208;37.686;2023-04-27T04:20:22;98675.25;;;14.99;100.00
26635;BME280;14490;54.208;37.686;2023-04-27T04:23:09;98615.38;;;14.78;100.00
26635;BME280;14490;54.208;37.686;2023-04-27T04:25:50;98650.53;;;15.02;100.00
26635;BME280;14490;54.208;37.686;2023-04-27T04:28:20;98660.16;;;15.13;100.00
26635;BME280;14490;54.208;37.686;2023-04-27T04:30:52;98670.47;;;15.17;100.00
26635;BME280;14490;54.208;37.686;2023-04-27T04:33:26;98667.25;;;15.22;100.00
26635;BME280;14490;54.208;37.686;2023-04-27T04:36:04;98648.97;;;15.16;100.00
26635;BME280;14490;54.208;37.686;2023-04-27T04:38:43;98647.06;;;15.24;100.00
26635;BME280;14490;54.208;37.686;2023-04-27T04:41:23;98640.81;;;15.24;100.00
26635;BME280;14490;54.208;37.686;2023-04-27T04:43:57;98678.47;;;15.58;100.00
26635;BME280;14490;54.208;37.686;2023-04-27T04:46:25;98672.03;;;15.59;100.00
26635;BME280;14490;54.208;37.686;2023-04-27T04:48:53;98694.22;;;15.62;100.00
26635;BME280;14490;54.208;37.686;2023-04-27T04:51:20;98689.69;;;15.55;100.00
26635;BME280;14490;54.208;37.686;2023-04-27T04:53:49;98673.47;;;15.30;100.00
26635;BME280;14490;54.208;37.686;2023-04-27T04:56:30;98699.53;;;15.40;100.00
26635;BME280;14490;54.208;37.686;2023-04-27T04:59:04;98701.25;;;15.41;100.00
26635;BME280;14490;54.208;37.686;2023-04-27T05:01:37;98707.34;;;15.35;100.00
26635;BME280;14490;54.208;37.686;2023-04-27T05:04:09;98681.28;;;15.25;100.00
26635;BME280;14490;54.208;37.686;2023-04-27T05:06:57;98606.22;;;14.87;100.00
26635;BME280;14490;54.208;37.686;2023-04-27T05:16:02;98694.09;;;15.56;100.00
26635;BME280;14490;54.208;37.686;2023-04-27T05:18:30;98656.81;;;15.42;100.00
26635;BME280;14490;54.208;37.686;2023-04-27T05:20:58;98694.34;;;15.69;100.00
26635;BME280;14490;54.208;37.686;2023-04-27T05:23:26;98685.19;;;15.70;100.00
26635;BME280;14490;54.208;37.686;2023-04-27T05:25:56;98679.41;;;15.73;100.00
26635;BME280;14490;54.208;37.686;2023-04-27T05:28:23;98689.06;;;15.75;100.00
26635;BME280;14490;54.208;37.686;2023-04-27T05:30:53;98682.44;;;15.78;100.00
26635;BME280;14490;54.208;37.686;2023-04-27T05:33:25;98650.00;;;15.62;100.00
26635;BME280;14490;54.208;37.686;2023-04-27T05:36:08;98681.38;;;15.87;100.00
26635;BME280;14490;54.208;37.686;2023-04-27T05:38:43;98666.63;;;15.90;100.00
26635;BME280;14490;54.208;37.686;2023-04-27T05:41:12;98687.19;;;16.07;100.00
26635;BME280;14490;54.208;37.686;2023-04-27T05:43:40;98642.19;;;15.90;100.00
26635;BME280;14490;54.208;37.686;2023-04-27T05:46:12;98677.78;;;16.17;100.00
26635;BME280;14490;54.208;37.686;2023-04-27T05:48:42;98662.81;;;16.21;100.00
26635;BME280;14490;54.208;37.686;2023-04-27T05:51:09;98694.19;;;16.47;100.00
26635;BME280;14490;54.208;37.686;2023-04-27T05:53:42;98674.50;;;16.45;100.00
26635;BME280;14490;54.208;37.686;2023-04-27T05:56:15;98691.66;;;16.68;100.00
26635;BME280;14490;54.208;37.686;2023-04-27T05:58:42;98686.81;;;16.78;100.00
26635;BME280;14490;54.208;37.686;2023-04-27T06:01:16;98684.50;;;16.89;100.00
26635;BME280;14490;54.208;37.686;2023-04-27T06:03:46;98685.53;;;17.03;100.00
26635;BME280;14490;54.208;37.686;2023-04-27T06:06:15;98699.06;;;17.11;100.00
26635;BME280;14490;54.208;37.686;2023-04-27T06:08:42;98659.69;;;16.92;100.00
26635;BME280;14490;54.208;37.686;2023-04-27T06:11:38;98632.47;;;16.78;100.00
26635;BME280;14490;54.208;37.686;2023-04-27T06:14:19;98694.75;;;17.31;100.00
26635;BME280;14490;54.208;37.686;2023-04-27T06:16:59;98696.25;;;17.48;100.00
26635;BME280;14490;54.208;37.686;2023-04-27T06:19:28;98681.25;;;17.67;100.00
26635;BME280;14490;54.208;37.686;2023-04-27T06:21:56;98691.41;;;17.94;100.00
26635;BME280;14490;54.208;37.686;2023-04-27T06:24:24;98656.09;;;18.01;100.00
26635;BME280;14490;54.208;37.686;2023-04-27T06:26:53;98647.69;;;18.17;100.00
26635;BME280;14490;54.208;37.686;2023-04-27T06:33:00;98632.63;;;18.42;100.00
26635;BME280;14490;54.208;37.686;2023-04-27T06:39:07;98700.06;;;19.04;100.00
26635;BME280;14490;54.208;37.686;2023-04-27T06:41:40;98627.78;;;18.87;100.00
26635;BME280;14490;54.208;37.686;2023-04-27T06:44:11;98685.28;;;19.47;98.88
26635;BME280;14490;54.208;37.686;2023-04-27T06:46:56;98697.22;;;19.81;94.28
26635;BME280;14490;54.208;37.686;2023-04-27T06:49:28;98695.19;;;20.02;89.48
26635;BME280;14490;54.208;37.686;2023-04-27T06:52:19;98694.81;;;20.12;83.79
26635;BME280;14490;54.208;37.686;2023-04-27T06:54:50;98688.13;;;20.21;77.61
26635;BME280;14490;54.208;37.686;2023-04-27T06:57:21;98697.41;;;20.40;73.03
26635;BME280;14490;54.208;37.686;2023-04-27T06:59:50;98693.69;;;20.60;70.28
26635;BME280;14490;54.208;37.686;2023-04-27T07:02:20;98692.44;;;20.69;66.06
26635;BME280;14490;54.208;37.686;2023-04-27T07:04:59;98696.66;;;20.79;62.83
26635;BME280;14490;54.208;37.686;2023-04-27T07:07:27;98666.34;;;20.67;62.04
26635;BME280;14490;54.208;37.686;2023-04-27T07:09:56;98703.34;;;20.83;60.76
26635;BME280;14490;54.208;37.686;2023-04-27T07:12:25;98652.44;;;20.42;60.74
26635;BME280;14490;54.208;37.686;2023-04-27T07:15:10;98670.53;;;20.56;60.56
26635;BME280;14490;54.208;37.686;2023-04-27T07:17:52;98703.78;;;20.80;59.71
26635;BME280;14490;54.208;37.686;2023-04-27T07:23:12;98698.31;;;20.86;58.43
26635;BME280;14490;54.208;37.686;2023-04-27T07:25:41;98705.06;;;21.03;57.47
26635;BME280;14490;54.208;37.686;2023-04-27T07:28:10;98706.94;;;21.22;56.66
26635;BME280;14490;54.208;37.686;2023-04-27T07:30:38;98688.81;;;21.35;55.56
26635;BME280;14490;54.208;37.686;2023-04-27T07:33:09;98681.06;;;21.25;54.22
26635;BME280;14490;54.208;37.686;2023-04-27T07:35:39;98709.25;;;21.39;54.32
26635;BME280;14490;54.208;37.686;2023-04-27T07:38:07;98700.00;;;21.33;53.78
26635;BME280;14490;54.208;37.686;2023-04-27T07:40:37;98700.81;;;21.40;53.67
26635;BME280;14490;54.208;37.686;2023-04-27T07:43:06;98712.38;;;21.55;53.98
26635;BME280;14490;54.208;37.686;2023-04-27T07:45:35;98713.38;;;21.74;52.98
26635;BME280;14490;54.208;37.686;2023-04-27T07:48:05;98687.25;;;21.71;51.87
26635;BME280;14490;54.208;37.686;2023-04-27T07:50:33;98716.03;;;22.07;50.99
26635;BME280;14490;54.208;37.686;2023-04-27T07:53:00;98710.31;;;22.15;50.86
26635;BME280;14490;54.208;37.686;2023-04-27T07:55:28;98711.72;;;22.24;50.46
26635;BME280;14490;54.208;37.686;2023-04-27T07:57:56;98715.66;;;22.34;50.37
26635;BME280;14490;54.208;37.686;2023-04-27T08:00:25;98698.78;;;22.38;50.31
26635;BME280;14490;54.208;37.686;2023-04-27T08:02:53;98717.63;;;22.59;49.48
26635;BME280;14490;54.208;37.686;2023-04-27T08:05:21;98705.19;;;22.56;48.83
26635;BME280;14490;54.208;37.686;2023-04-27T08:07:49;98706.31;;;22.49;49.15
26635;BME280;14490;54.208;37.686;2023-04-27T08:10:19;98689.56;;;22.25;49.27
26635;BME280;14490;54.208;37.686;2023-04-27T08:12:47;98711.44;;;22.39;49.07
26635;BME280;14490;54.208;37.686;2023-04-27T08:15:20;98674.41;;;22.23;48.81
26635;BME280;14490;54.208;37.686;2023-04-27T08:17:50;98719.34;;;22.53;48.85
26635;BME280;14490;54.208;37.686;2023-04-27T08:20:19;98700.16;;;22.53;48.48
26635;BME280;14490;54.208;37.686;2023-04-27T08:22:49;98701.53;;;22.75;47.67
26635;BME280;14490;54.208;37.686;2023-04-27T08:25:19;98670.34;;;22.63;47.21
26635;BME280;14490;54.208;37.686;2023-04-27T08:27:51;98704.63;;;22.85;47.01
26635;BME280;14490;54.208;37.686;2023-04-27T08:30:22;98681.91;;;22.72;47.28
26635;BME280;14490;54.208;37.686;2023-04-27T08:32:54;98668.66;;;22.62;47.15
26635;BME280;14490;54.208;37.686;2023-04-27T08:35:21;98697.84;;;22.50;47.23
26635;BME280;14490;54.208;37.686;2023-04-27T08:37:49;98674.13;;;21.87;46.98
26635;BME280;14490;54.208;37.686;2023-04-27T08:40:18;98672.00;;;21.95;47.27
26635;BME280;14490;54.208;37.686;2023-04-27T08:42:54;98701.09;;;21.96;47.70
26635;BME280;14490;54.208;37.686;2023-04-27T08:45:23;98709.59;;;21.68;48.37
26635;BME280;14490;54.208;37.686;2023-04-27T08:47:51;98706.03;;;21.61;49.52
26635;BME280;14490;54.208;37.686;2023-04-27T08:50:21;98700.78;;;21.66;49.80
26635;BME280;14490;54.208;37.686;2023-04-27T08:52:50;98704.38;;;21.54;49.68
26635;BME280;14490;54.208;37.686;2023-04-27T08:55:18;98659.81;;;21.27;49.75
26635;BME280;14490;54.208;37.686;2023-04-27T08:57:56;98691.13;;;21.51;48.45
26635;BME280;14490;54.208;37.686;2023-04-27T09:00:26;98687.78;;;21.42;49.34
26635;BME280;14490;54.208;37.686;2023-04-27T09:03:06;98700.09;;;21.77;48.62
26635;BME280;14490;54.208;37.686;2023-04-27T09:05:45;98691.09;;;22.21;47.82
26635;BME280;14490;54.208;37.686;2023-04-27T09:08:14;98700.56;;;22.57;47.29
26635;BME280;14490;54.208;37.686;2023-04-27T09:10:45;98659.38;;;22.63;46.75
26635;BME280;14490;54.208;37.686;2023-04-27T09:13:14;98693.34;;;22.94;46.96
26635;BME280;14490;54.208;37.686;2023-04-27T09:15:43;98689.88;;;23.05;46.87
26635;BME280;14490;54.208;37.686;2023-04-27T09:18:16;98687.13;;;23.05;47.38
26635;BME280;14490;54.208;37.686;2023-04-27T09:20:46;98642.84;;;22.76;47.95
26635;BME280;14490;54.208;37.686;2023-04-27T09:23:27;98682.88;;;22.84;47.61
26635;BME280;14490;54.208;37.686;2023-04-27T09:25:56;98690.00;;;22.67;48.27
26635;BME280;14490;54.208;37.686;2023-04-27T09:28:26;98688.34;;;22.53;48.73
26635;BME280;14490;54.208;37.686;2023-04-27T09:30:57;98691.16;;;22.46;48.77
26635;BME280;14490;54.208;37.686;2023-04-27T09:33:27;98688.94;;;22.30;48.37
26635;BME280;14490;54.208;37.686;2023-04-27T09:35:57;98625.25;;;21.84;48.98
26635;BME280;14490;54.208;37.686;2023-04-27T09:38:25;98645.84;;;22.06;49.40
26635;BME280;14490;54.208;37.686;2023-04-27T09:40:54;98635.34;;;21.96;50.01
26635;BME280;14490;54.208;37.686;2023-04-27T09:43:22;98687.22;;;22.29;50.18
26635;BME280;14490;54.208;37.686;2023-04-27T09:45:55;98686.34;;;22.35;49.98
26635;BME280;14490;54.208;37.686;2023-04-27T09:48:25;98673.50;;;22.36;49.94
26635;BME280;14490;54.208;37.686;2023-04-27T09:50:55;98644.69;;;22.20;49.81
26635;BME280;14490;54.208;37.686;2023-04-27T09:53:28;98684.69;;;22.34;49.76
26635;BME280;14490;54.208;37.686;2023-04-27T09:56:08;98684.50;;;22.29;50.68
26635;BME280;14490;54.208;37.686;2023-04-27T09:59:17;98662.00;;;22.52;51.17
26635;BME280;14490;54.208;37.686;2023-04-27T10:01:56;98665.63;;;22.77;50.59
26635;BME280;14490;54.208;37.686;2023-04-27T10:04:44;98671.81;;;22.97;49.90
26635;BME280;14490;54.208;37.686;2023-04-27T10:07:25;98669.25;;;23.20;49.47
26635;BME280;14490;54.208;37.686;2023-04-27T10:09:53;98669.50;;;23.19;50.08
26635;BME280;14490;54.208;37.686;2023-04-27T10:12:27;98650.34;;;23.12;49.48
26635;BME280;14490;54.208;37.686;2023-04-27T10:15:11;98640.50;;;23.23;48.70
26635;BME280;14490;54.208;37.686;2023-04-27T10:17:47;98642.72;;;23.32;48.46
26635;BME280;14490;54.208;37.686;2023-04-27T10:20:28;98669.84;;;23.47;49.10
26635;BME280;14490;54.208;37.686;2023-04-27T10:22:56;98669.84;;;23.65;49.18
26635;BME280;14490;54.208;37.686;2023-04-27T10:25:26;98664.81;;;23.62;49.31
26635;BME280;14490;54.208;37.686;2023-04-27T10:28:01;98664.06;;;23.55;50.05
26635;BME280;14490;54.208;37.686;2023-04-27T10:30:44;98666.66;;;23.50;49.41
26635;BME280;14490;54.208;37.686;2023-04-27T10:33:29;98660.88;;;23.40;50.26
26635;BME280;14490;54.208;37.686;2023-04-27T10:35:58;98654.53;;;23.39;50.01
26635;BME280;14490;54.208;37.686;2023-04-27T10:38:27;98655.19;;;23.53;49.69
26635;BME280;14490;54.208;37.686;2023-04-27T10:40:56;98662.53;;;23.59;50.16
26635;BME280;14490;54.208;37.686;2023-04-27T10:43:27;98648.78;;;23.59;49.18
26635;BME280;14490;54.208;37.686;2023-04-27T10:46:06;98650.78;;;23.70;48.29
26635;BME280;14490;54.208;37.686;2023-04-27T10:48:37;98628.94;;;23.75;47.43
26635;BME280;14490;54.208;37.686;2023-04-27T10:51:07;98654.56;;;24.06;46.61
26635;BME280;14490;54.208;37.686;2023-04-27T10:53:40;98651.28;;;24.15;46.30
26635;BME280;14490;54.208;37.686;2023-04-27T10:56:09;98645.91;;;24.20;46.60
26635;BME280;14490;54.208;37.686;2023-04-27T10:58:37;98654.22;;;24.32;47.03
26635;BME280;14490;54.208;37.686;2023-04-27T11:01:07;98625.84;;;24.20;46.17
26635;BME280;14490;54.208;37.686;2023-04-27T11:03:54;98656.28;;;24.36;44.44
26635;BME280;14490;54.208;37.686;2023-04-27T11:06:24;98643.00;;;24.33;44.10
26635;BME280;14490;54.208;37.686;2023-04-27T11:08:55;98621.84;;;24.34;43.84
26635;BME280;14490;54.208;37.686;2023-04-27T11:11:25;98633.94;;;24.44;44.19
26635;BME280;14490;54.208;37.686;2023-04-27T11:13:53;98627.72;;;24.49;44.27
26635;BME280;14490;54.208;37.686;2023-04-27T11:16:22;98649.53;;;24.62;43.83
26635;BME280;14490;54.208;37.686;2023-04-27T11:18:50;98646.78;;;24.62;43.00
26635;BME280;14490;54.208;37.686;2023-04-27T11:21:20;98641.03;;;24.52;42.78
26635;BME280;14490;54.208;37.686;2023-04-27T11:23:49;98633.72;;;24.46;43.25
26635;BME280;14490;54.208;37.686;2023-04-27T11:26:18;98627.38;;;24.57;43.40
26635;BME280;14490;54.208;37.686;2023-04-27T11:28:59;98628.25;;;24.69;43.24
26635;BME280;14490;54.208;37.686;2023-04-27T11:31:39;98637.16;;;24.53;44.06
26635;BME280;14490;54.208;37.686;2023-04-27T11:34:09;98628.69;;;24.55;44.81
26635;BME280;14490;54.208;37.686;2023-04-27T11:40:20;98629.97;;;24.11;46.21
26635;BME280;14490;54.208;37.686;2023-04-27T11:43:04;98619.63;;;23.94;46.51
26635;BME280;14490;54.208;37.686;2023-04-27T11:46:25;98582.41;;;23.62;46.57
26635;BME280;14490;54.208;37.686;2023-04-27T11:49:59;98619.88;;;23.75;46.63
26635;BME280;14490;54.208;37.686;2023-04-27T11:52:46;98511.28;;;23.06;46.71
26635;BME280;14490;54.208;37.686;2023-04-27T11:55:36;98575.53;;;23.35;47.29
26635;BME280;14490;54.208;37.686;2023-04-27T11:58:06;98607.59;;;23.41;47.38
26635;BME280;14490;54.208;37.686;2023-04-27T12:00:42;98579.75;;;23.37;nan
26635;BME280;14490;54.208;37.686;2023-04-27T12:03:34;98579.97;;;23.54;49.44
26635;BME280;14490;54.208;37.686;2023-04-27T12:06:29;98488.63;;;22.93;49.04
26635;BME280;14490;54.208;37.686;2023-04-27T12:08:58;98581.28;;;23.52;49.50
26635;BME280;14490;54.208;37.686;2023-04-27T12:11:27;98613.53;;;23.74;50.00
26635;BME280;14490;54.208;37.686;2023-04-27T12:13:55;98600.19;;;23.60;50.09
26635;BME280;14490;54.208;37.686;2023-04-27T12:16:23;98588.66;;;23.33;49.95
26635;BME280;14490;54.208;37.686;2023-04-27T12:18:51;98597.94;;;23.32;49.93
26635;BME280;14490;54.208;37.686;2023-04-27T12:21:18;98598.41;;;23.29;50.13
26635;BME280;14490;54.208;37.686;2023-04-27T12:23:46;98595.66;;;23.29;49.82
26635;BME280;14490;54.208;37.686;2023-04-27T12:26:14;98593.44;;;23.19;49.12
26635;BME280;14490;54.208;37.686;2023-04-27T12:28:43;98574.59;;;23.05;48.54
26635;BME280;14490;54.208;37.686;2023-04-27T12:31:14;98560.72;;;23.00;48.84
26635;BME280;14490;54.208;37.686;2023-04-27T12:33:47;98593.00;;;23.22;48.59
26635;BME280;14490;54.208;37.686;2023-04-27T12:36:18;98564.41;;;23.12;48.77
26635;BME280;14490;54.208;37.686;2023-04-27T12:38:46;98579.44;;;23.27;48.43
26635;BME280;14490;54.208;37.686;2023-04-27T12:41:13;98548.72;;;23.19;48.12
26635;BME280;14490;54.208;37.686;2023-04-27T12:43:45;98541.84;;;23.28;46.97
26635;BME280;14490;54.208;37.686;2023-04-27T12:46:15;98571.16;;;23.52;46.63
26635;BME280;14490;54.208;37.686;2023-04-27T12:48:43;98576.63;;;23.52;47.22
26635;BME280;14490;54.208;37.686;2023-04-27T12:51:17;98541.66;;;23.05;47.50
26635;BME280;14490;54.208;37.686;2023-04-27T12:53:46;98579.19;;;23.11;48.00
26635;BME280;14490;54.208;37.686;2023-04-27T12:56:15;98576.75;;;23.03;47.83
26635;BME280;14490;54.208;37.686;2023-04-27T12:58:43;98578.59;;;23.09;47.73
26635;BME280;14490;54.208;37.686;2023-04-27T13:01:15;98550.66;;;22.94;48.13
26635;BME280;14490;54.208;37.686;2023-04-27T13:03:43;98515.13;;;22.80;48.42
26635;BME280;14490;54.208;37.686;2023-04-27T13:06:15;98579.63;;;23.08;48.93
26635;BME280;14490;54.208;37.686;2023-04-27T13:08:43;98551.13;;;22.91;49.25
26635;BME280;14490;54.208;37.686;2023-04-27T13:11:11;98575.69;;;23.22;48.82
26635;BME280;14490;54.208;37.686;2023-04-27T13:13:38;98504.94;;;23.06;48.19
26635;BME280;14490;54.208;37.686;2023-04-27T13:16:07;98551.03;;;23.40;48.05
26635;BME280;14490;54.208;37.686;2023-04-27T13:18:36;98547.03;;;23.54;47.86
26635;BME280;14490;54.208;37.686;2023-04-27T13:21:12;98569.91;;;23.66;47.72
26635;BME280;14490;54.208;37.686;2023-04-27T13:23:46;98565.94;;;23.62;47.63
26635;BME280;14490;54.208;37.686;2023-04-27T13:26:34;98560.31;;;23.39;47.93
26635;BME280;14490;54.208;37.686;2023-04-27T13:29:01;98565.38;;;23.35;48.14
26635;BME280;14490;54.208;37.686;2023-04-27T13:31:32;98545.06;;;23.07;48.06